createdAt,value
2023-01-19T00:01:16.310Z,82.20
2023-01-19T00:02:37.242Z,82.40
2023-01-19T00:03:57.559Z,82.50
2023-01-19T00:05:18.112Z,82.30
2023-01-19T00:06:38.905Z,82.90
2023-01-19T00:07:59.829Z,83.10
2023-01-19T00:09:20.779Z,82.40
2023-01-19T00:10:42.159Z,82.80
2023-01-19T00:12:04.333Z,82.50
2023-01-19T00:13:25.170Z,82.90
2023-01-19T00:14:46.533Z,83.60
2023-01-19T00:16:07.454Z,83.80
2023-01-19T00:17:28.055Z,84.70
2023-01-19T00:18:49.564Z,84.80
2023-01-19T00:20:11.533Z,85.50
2023-01-19T00:21:32.304Z,86.40
2023-01-19T00:22:53.087Z,87.40
2023-01-19T00:24:13.898Z,88.30
2023-01-19T00:25:34.860Z,88.60
2023-01-19T00:26:55.949Z,88.90
2023-01-19T00:28:18.884Z,89.60
2023-01-19T00:29:39.550Z,89.90
2023-01-19T00:31:00.116Z,89.90
2023-01-19T00:32:20.694Z,89.90
2023-01-19T00:33:41.772Z,89.90
2023-01-19T00:35:02.687Z,89.90
2023-01-19T00:36:23.278Z,89.90
2023-01-19T00:37:44.013Z,89.90
2023-01-19T00:39:04.589Z,89.90
2023-01-19T00:40:25.312Z,89.90
2023-01-19T00:41:45.971Z,89.90
2023-01-19T00:43:06.730Z,89.90
2023-01-19T00:44:28.476Z,89.90
2023-01-19T00:45:49.372Z,89.90
2023-01-19T00:47:10.074Z,89.90
2023-01-19T00:48:30.920Z,89.90
2023-01-19T00:49:52.568Z,89.90
2023-01-19T00:51:13.416Z,89.90
2023-01-19T00:52:33.776Z,89.90
2023-01-19T00:53:54.568Z,89.90
2023-01-19T00:55:16.555Z,89.90
2023-01-19T00:56:37.352Z,89.90
2023-01-19T00:57:58.052Z,89.90
2023-01-19T00:59:18.505Z,89.90
2023-01-19T01:00:40.693Z,89.90
2023-01-19T01:02:01.242Z,89.90
2023-01-19T01:03:21.706Z,89.90
2023-01-19T01:04:42.396Z,89.90
2023-01-19T01:06:03.529Z,89.90
2023-01-19T01:07:24.631Z,89.90
2023-01-19T01:08:45.323Z,89.90
2023-01-19T01:10:07.395Z,89.90
2023-01-19T01:11:27.855Z,89.90
2023-01-19T01:12:54.899Z,89.90
2023-01-19T01:14:18.451Z,89.90
2023-01-19T01:15:40.369Z,89.90
2023-01-19T01:17:01.091Z,89.90
2023-01-19T01:18:22.435Z,89.90
2023-01-19T01:19:43.025Z,89.90
2023-01-19T01:21:05.494Z,89.90
2023-01-19T01:22:26.691Z,89.90
2023-01-19T01:23:58.575Z,89.90
2023-01-19T01:25:21.619Z,89.90
2023-01-19T01:26:42.550Z,89.90
2023-01-19T01:28:03.405Z,89.90
2023-01-19T01:29:24.229Z,89.90
2023-01-19T01:30:46.019Z,89.90
2023-01-19T01:32:06.737Z,89.90
2023-01-19T01:33:40.530Z,89.90
2023-01-19T01:35:02.038Z,89.90
2023-01-19T01:36:22.884Z,89.90
2023-01-19T01:37:43.370Z,89.90
2023-01-19T01:39:05.028Z,89.90
2023-01-19T01:40:25.629Z,89.90
2023-01-19T01:41:46.638Z,89.90
2023-01-19T01:43:11.385Z,89.90
2023-01-19T01:44:49.518Z,89.90
2023-01-19T01:46:11.889Z,89.90
2023-01-19T01:47:36.911Z,89.90
2023-01-19T01:49:01.527Z,89.90
2023-01-19T01:50:23.946Z,89.90
2023-01-19T01:51:46.427Z,89.90
2023-01-19T01:53:09.897Z,89.90
2023-01-19T01:54:32.786Z,89.90
2023-01-19T01:55:53.510Z,89.90
2023-01-19T01:57:14.573Z,89.90
2023-01-19T01:58:35.923Z,89.90
2023-01-19T01:59:57.519Z,89.90
2023-01-19T02:01:19.696Z,89.90
2023-01-19T02:02:40.572Z,89.90
2023-01-19T02:04:01.205Z,89.90
2023-01-19T02:05:24.623Z,89.90
2023-01-19T02:06:45.556Z,89.90
2023-01-19T02:08:10.181Z,89.90
2023-01-19T02:09:33.315Z,89.90
2023-01-19T02:10:54.880Z,89.90
2023-01-19T02:12:15.832Z,89.90
2023-01-19T02:13:38.575Z,89.90
2023-01-19T02:14:59.073Z,89.90
2023-01-19T02:16:21.395Z,89.90
2023-01-19T02:17:42.540Z,89.90
2023-01-19T02:19:03.744Z,89.90
2023-01-19T02:20:26.596Z,89.90
2023-01-19T02:21:52.741Z,89.90
2023-01-19T02:23:17.366Z,89.90
2023-01-19T02:24:39.538Z,89.90
2023-01-19T02:26:01.026Z,89.90
2023-01-19T02:27:21.608Z,89.90
2023-01-19T02:28:44.797Z,89.90
2023-01-19T02:30:06.638Z,89.90
2023-01-19T02:31:28.863Z,89.90
2023-01-19T02:32:49.694Z,89.90
2023-01-19T02:34:11.435Z,89.90
2023-01-19T02:35:32.519Z,89.90
2023-01-19T02:36:55.030Z,89.90
2023-01-19T02:38:15.720Z,89.90
2023-01-19T02:39:39.110Z,89.90
2023-01-19T02:41:01.105Z,89.90
2023-01-19T02:42:25.548Z,89.90
2023-01-19T02:43:49.924Z,89.90
2023-01-19T02:45:11.564Z,89.90
2023-01-19T02:46:31.963Z,89.90
2023-01-19T02:47:53.096Z,89.90
2023-01-19T02:49:13.851Z,89.90
2023-01-19T02:50:39.850Z,89.90
2023-01-19T02:52:00.791Z,89.90
2023-01-19T02:53:45.440Z,89.90
2023-01-19T02:55:14.048Z,89.90
2023-01-19T02:56:46.748Z,89.90
2023-01-19T02:58:11.457Z,89.90
2023-01-19T02:59:42.979Z,89.90
2023-01-19T03:01:11.278Z,89.90
2023-01-19T03:02:43.085Z,89.90
2023-01-19T03:04:10.454Z,89.90
2023-01-19T03:05:38.150Z,89.90
2023-01-19T03:07:03.407Z,89.90
2023-01-19T03:08:32.362Z,89.90
2023-01-19T03:09:57.491Z,89.90
2023-01-19T03:11:19.609Z,89.90
2023-01-19T03:12:44.595Z,89.90
2023-01-19T03:14:09.289Z,89.90
2023-01-19T03:15:32.948Z,89.90
2023-01-19T03:16:56.490Z,89.90
2023-01-19T03:18:20.992Z,89.90
2023-01-19T03:19:42.487Z,89.90
2023-01-19T03:21:06.422Z,89.90
2023-01-19T03:22:29.269Z,89.90
2023-01-19T03:23:50.600Z,89.90
2023-01-19T03:25:11.873Z,89.90
2023-01-19T03:26:39.495Z,89.90
2023-01-19T03:28:00.047Z,89.90
2023-01-19T03:29:22.739Z,89.90
2023-01-19T03:30:46.189Z,89.90
2023-01-19T03:32:11.253Z,89.90
2023-01-19T03:33:33.330Z,89.90
2023-01-19T03:34:54.617Z,89.90
2023-01-19T03:36:18.794Z,89.90
2023-01-19T03:37:42.905Z,89.90
2023-01-19T03:39:04.941Z,89.90
2023-01-19T03:40:27.329Z,89.90
2023-01-19T03:41:51.960Z,89.90
2023-01-19T03:43:13.564Z,89.90
2023-01-19T03:44:37.789Z,89.90
2023-01-19T03:45:58.946Z,89.90
2023-01-19T03:47:19.886Z,89.90
2023-01-19T03:48:40.385Z,89.90
2023-01-19T03:50:02.883Z,89.90
2023-01-19T03:51:23.644Z,89.90
2023-01-19T03:52:44.238Z,89.90
2023-01-19T03:54:05.202Z,89.90
2023-01-19T03:55:25.660Z,89.90
2023-01-19T03:56:46.237Z,89.90
2023-01-19T03:58:11.051Z,89.90
2023-01-19T03:59:31.483Z,89.90
2023-01-19T04:00:52.117Z,89.90
2023-01-19T04:02:12.903Z,89.90
2023-01-19T04:03:33.600Z,89.90
2023-01-19T04:04:53.927Z,89.90
2023-01-19T04:06:14.755Z,89.90
2023-01-19T04:07:35.193Z,89.90
2023-01-19T04:08:55.593Z,89.90
2023-01-19T04:10:17.170Z,89.90
2023-01-19T04:11:37.420Z,89.90
2023-01-19T04:12:59.154Z,89.90
2023-01-19T04:14:21.327Z,88.70
2023-01-19T04:15:41.861Z,87.90
2023-01-19T04:17:02.551Z,87.10
2023-01-19T04:18:23.018Z,86.40
2023-01-19T04:19:43.791Z,85.50
2023-01-19T04:21:07.130Z,86.10
2023-01-19T04:22:27.552Z,86.60
2023-01-19T04:23:48.170Z,85.50
2023-01-19T04:25:10.175Z,85.40
2023-01-19T04:26:30.925Z,85.50
2023-01-19T04:27:52.468Z,86.30
2023-01-19T04:29:12.928Z,85.20
2023-01-19T04:30:35.058Z,86.00
2023-01-19T04:31:55.860Z,87.00
2023-01-19T04:33:16.644Z,86.00
2023-01-19T04:34:37.364Z,86.30
2023-01-19T04:35:58.249Z,86.30
2023-01-19T04:37:19.153Z,86.10
2023-01-19T04:38:39.721Z,85.50
2023-01-19T04:40:00.308Z,86.10
2023-01-19T04:41:21.409Z,85.80
2023-01-19T04:42:43.497Z,85.40
2023-01-19T04:44:04.835Z,85.90
2023-01-19T04:45:25.387Z,85.80
2023-01-19T04:46:47.139Z,85.50
2023-01-19T04:48:08.485Z,85.60
2023-01-19T04:49:29.065Z,85.50
2023-01-19T04:50:51.338Z,85.90
2023-01-19T04:52:11.945Z,86.20
2023-01-19T04:53:32.466Z,86.40
2023-01-19T04:54:52.812Z,85.50
2023-01-19T04:56:13.578Z,85.60
2023-01-19T04:57:34.160Z,86.00
2023-01-19T04:58:54.969Z,85.10
2023-01-19T05:00:17.065Z,84.90
2023-01-19T05:01:37.437Z,84.70
2023-01-19T05:03:00.272Z,84.70
2023-01-19T05:04:20.974Z,84.70
2023-01-19T05:05:41.536Z,83.80
2023-01-19T05:07:02.171Z,84.30
2023-01-19T05:08:22.641Z,84.10
2023-01-19T05:09:43.322Z,83.50
2023-01-19T05:11:04.125Z,83.50
2023-01-19T05:12:24.572Z,84.30
2023-01-19T05:13:45.108Z,84.30
2023-01-19T05:15:06.739Z,84.80
2023-01-19T05:16:27.546Z,84.50
2023-01-19T05:17:48.108Z,83.90
2023-01-19T05:19:09.921Z,84.10
2023-01-19T05:20:30.316Z,84.00
2023-01-19T05:21:50.993Z,84.40
2023-01-19T05:23:11.532Z,84.20
2023-01-19T05:24:32.260Z,84.30
2023-01-19T05:25:52.888Z,83.90
2023-01-19T05:27:13.293Z,84.20
2023-01-19T05:28:34.030Z,83.80
2023-01-19T05:29:54.640Z,85.10
2023-01-19T05:31:16.101Z,85.20
2023-01-19T05:32:38.044Z,85.40
2023-01-19T05:33:58.602Z,85.00
2023-01-19T05:35:31.293Z,85.70
2023-01-19T05:36:56.202Z,85.60
2023-01-19T05:38:20.852Z,84.80
2023-01-19T05:39:44.145Z,84.20
2023-01-19T05:41:05.013Z,84.00
2023-01-19T05:42:25.361Z,81.90
2023-01-19T05:43:47.894Z,81.80
2023-01-19T05:45:09.463Z,81.80
2023-01-19T05:46:30.029Z,82.40
2023-01-19T05:47:50.958Z,82.80
2023-01-19T05:49:12.103Z,82.20
2023-01-19T05:50:34.728Z,82.20
2023-01-19T05:51:55.076Z,82.90
2023-01-19T05:53:15.846Z,80.50
2023-01-19T05:54:36.433Z,81.90
2023-01-19T05:56:01.053Z,80.90
2023-01-19T05:57:22.365Z,81.60
2023-01-19T05:58:42.926Z,81.50
2023-01-19T06:00:04.466Z,82.20
2023-01-19T06:01:25.160Z,80.80
2023-01-19T06:02:46.281Z,81.00
2023-01-19T06:04:07.193Z,81.90
2023-01-19T06:05:27.516Z,82.40
2023-01-19T06:06:49.382Z,81.80
2023-01-19T06:08:09.892Z,80.70
2023-01-19T06:09:30.403Z,81.40
2023-01-19T06:10:50.700Z,81.40
2023-01-19T06:12:11.017Z,81.10
2023-01-19T06:13:31.526Z,81.00
2023-01-19T06:14:52.218Z,80.90
2023-01-19T06:16:13.066Z,81.40
2023-01-19T06:17:33.949Z,81.40
2023-01-19T06:18:54.763Z,81.80
2023-01-19T06:20:15.254Z,81.50
2023-01-19T06:21:35.582Z,82.10
2023-01-19T06:22:58.480Z,82.30
2023-01-19T06:24:19.348Z,82.30
2023-01-19T06:25:39.874Z,83.00
2023-01-19T06:27:00.181Z,81.80
2023-01-19T06:28:20.560Z,83.10
2023-01-19T06:29:41.034Z,82.50
2023-01-19T06:31:02.189Z,83.00
2023-01-19T06:32:23.065Z,83.60
2023-01-19T06:33:43.834Z,83.50
2023-01-19T06:35:05.074Z,84.10
2023-01-19T06:36:25.735Z,84.10
2023-01-19T06:37:46.001Z,84.60
2023-01-19T06:39:09.450Z,85.00
2023-01-19T06:40:29.983Z,85.90
2023-01-19T06:41:51.067Z,85.50
2023-01-19T06:43:11.411Z,85.80
2023-01-19T06:44:32.132Z,85.60
2023-01-19T06:45:52.530Z,85.90
2023-01-19T06:47:15.417Z,86.50
2023-01-19T06:48:36.289Z,86.30
2023-01-19T06:49:56.852Z,86.00
2023-01-19T06:51:17.681Z,85.60
2023-01-19T06:52:38.260Z,86.20
2023-01-19T06:53:59.157Z,85.30
2023-01-19T06:55:21.300Z,84.90
2023-01-19T06:56:43.936Z,85.50
2023-01-19T06:58:04.511Z,85.90
2023-01-19T06:59:25.040Z,87.10
2023-01-19T07:00:45.772Z,87.50
2023-01-19T07:02:26.728Z,86.90
2023-01-19T07:03:47.115Z,86.70
2023-01-19T07:05:08.564Z,87.60
2023-01-19T07:06:29.041Z,88.00
2023-01-19T07:07:52.825Z,88.00
2023-01-19T07:09:15.047Z,88.10
2023-01-19T07:11:25.674Z,88.10
2023-01-19T07:12:19.050Z,88.10
2023-01-19T07:13:40.634Z,88.20
2023-01-19T07:15:01.215Z,88.00
2023-01-19T07:16:21.972Z,88.30
2023-01-19T07:17:42.975Z,88.00
2023-01-19T07:19:03.369Z,87.50
2023-01-19T07:20:23.842Z,87.60
2023-01-19T07:21:44.306Z,86.80
2023-01-19T07:23:04.980Z,86.40
2023-01-19T07:24:25.770Z,84.70
2023-01-19T07:25:47.682Z,84.70
2023-01-19T07:27:08.380Z,84.10
2023-01-19T07:28:29.335Z,83.00
2023-01-19T07:29:50.037Z,82.40
2023-01-19T07:31:10.947Z,82.30
2023-01-19T07:32:31.628Z,82.90
2023-01-19T07:33:52.127Z,81.40
2023-01-19T07:35:12.929Z,82.20
2023-01-19T07:36:33.628Z,80.30
2023-01-19T07:37:54.581Z,80.50
2023-01-19T07:39:15.470Z,81.40
2023-01-19T07:40:36.101Z,80.30
2023-01-19T07:41:58.085Z,80.50
2023-01-19T07:43:18.541Z,81.00
2023-01-19T07:44:39.241Z,80.40
2023-01-19T07:46:00.822Z,80.60
2023-01-19T07:47:21.580Z,79.60
2023-01-19T07:48:42.282Z,81.50
2023-01-19T07:50:03.090Z,79.60
2023-01-19T07:51:23.409Z,79.70
2023-01-19T07:52:44.017Z,81.10
2023-01-19T07:54:04.695Z,81.20
2023-01-19T07:55:25.337Z,81.40
2023-01-19T07:56:46.079Z,81.20
2023-01-19T07:58:08.183Z,80.30
2023-01-19T07:59:28.794Z,80.60
2023-01-19T08:00:49.577Z,81.10
2023-01-19T08:02:10.737Z,81.10
2023-01-19T08:03:31.354Z,81.00
2023-01-19T08:04:51.881Z,82.20
2023-01-19T08:06:16.682Z,80.80
2023-01-19T08:07:37.374Z,80.50
2023-01-19T08:08:58.108Z,80.60
2023-01-19T08:10:18.828Z,81.00
2023-01-19T08:11:39.337Z,81.70
2023-01-19T08:13:00.065Z,81.10
2023-01-19T08:14:22.070Z,81.20
2023-01-19T08:15:42.811Z,80.20
2023-01-19T08:17:04.114Z,80.70
2023-01-19T08:18:24.912Z,81.60
2023-01-19T08:19:45.604Z,81.60
2023-01-19T08:21:06.594Z,80.50
2023-01-19T08:22:27.036Z,80.50
2023-01-19T08:23:52.374Z,80.70
2023-01-19T08:25:13.335Z,81.10
2023-01-19T08:26:35.215Z,82.40
2023-01-19T08:27:55.806Z,82.80
2023-01-19T08:29:16.494Z,80.80
2023-01-19T08:30:38.590Z,82.40
2023-01-19T08:32:00.225Z,83.20
2023-01-19T08:33:21.668Z,83.40
2023-01-19T08:34:42.994Z,83.30
2023-01-19T08:36:04.088Z,83.60
2023-01-19T08:37:24.522Z,83.70
2023-01-19T08:38:45.178Z,82.30
2023-01-19T08:40:07.121Z,83.70
2023-01-19T08:41:27.479Z,82.60
2023-01-19T08:42:48.320Z,83.30
2023-01-19T08:44:10.330Z,82.40
2023-01-19T08:45:30.512Z,81.50
2023-01-19T08:46:52.424Z,82.40
2023-01-19T08:48:13.483Z,81.90
2023-01-19T08:49:33.950Z,80.90
2023-01-19T08:50:54.776Z,80.40
2023-01-19T08:52:15.561Z,80.50
2023-01-19T08:53:36.106Z,81.20
2023-01-19T08:54:56.720Z,80.10
2023-01-19T08:56:18.964Z,79.20
2023-01-19T08:57:40.945Z,80.50
2023-01-19T08:59:09.318Z,78.90
2023-01-19T09:00:31.447Z,80.10
2023-01-19T09:01:53.602Z,79.70
2023-01-19T09:03:14.370Z,79.60
2023-01-19T09:04:35.007Z,79.70
2023-01-19T09:05:55.599Z,80.40
2023-01-19T09:07:16.271Z,79.90
2023-01-19T09:08:37.087Z,80.20
2023-01-19T09:09:57.402Z,79.30
2023-01-19T09:11:18.082Z,80.90
2023-01-19T09:12:38.530Z,80.70
2023-01-19T09:13:59.168Z,80.10
2023-01-19T09:15:19.940Z,80.50
2023-01-19T09:16:41.125Z,79.90
2023-01-19T09:18:03.292Z,80.60
2023-01-19T09:19:23.877Z,79.80
2023-01-19T09:20:46.955Z,78.50
2023-01-19T09:22:07.266Z,79.50
2023-01-19T09:23:28.116Z,79.50
2023-01-19T09:24:48.632Z,80.90
2023-01-19T09:26:10.470Z,79.90
2023-01-19T09:27:31.135Z,78.60
2023-01-19T09:28:51.533Z,78.10
2023-01-19T09:30:13.157Z,78.90
2023-01-19T09:31:33.509Z,79.20
2023-01-19T09:32:53.954Z,79.00
2023-01-19T09:34:16.032Z,78.70
2023-01-19T09:35:37.302Z,78.70
2023-01-19T09:36:58.057Z,77.70
2023-01-19T09:38:19.500Z,77.90
2023-01-19T09:39:40.099Z,79.20
2023-01-19T09:41:01.203Z,78.20
2023-01-19T09:42:23.635Z,77.40
2023-01-19T09:43:46.142Z,78.30
2023-01-19T09:45:09.213Z,78.40
2023-01-19T09:46:34.519Z,78.70
2023-01-19T09:47:57.174Z,76.60
2023-01-19T09:49:21.475Z,76.00
2023-01-19T09:50:44.099Z,76.00
2023-01-19T09:52:05.281Z,73.80
2023-01-19T09:53:35.055Z,75.00
2023-01-19T09:54:56.972Z,74.00
2023-01-19T09:56:19.038Z,73.00
2023-01-19T09:57:39.440Z,72.40
2023-01-19T09:59:00.490Z,72.00
2023-01-19T10:00:22.311Z,71.70
2023-01-19T10:01:53.055Z,71.10
2023-01-19T10:03:16.087Z,72.10
2023-01-19T10:04:40.202Z,72.50
2023-01-19T10:06:02.729Z,72.30
2023-01-19T10:07:33.502Z,72.80
2023-01-19T10:08:59.029Z,71.50
2023-01-19T10:10:21.719Z,73.00
2023-01-19T10:11:52.771Z,72.40
2023-01-19T10:13:29.806Z,71.00
2023-01-19T10:14:57.405Z,71.40
2023-01-19T10:16:28.739Z,72.00
2023-01-19T10:18:00.336Z,71.80
2023-01-19T10:19:23.515Z,70.60
2023-01-19T10:20:49.529Z,70.00
2023-01-19T10:22:18.059Z,72.50
2023-01-19T10:23:43.943Z,71.10
2023-01-19T10:25:10.811Z,71.90
2023-01-19T10:26:34.016Z,71.50
2023-01-19T10:27:54.181Z,70.60
2023-01-19T10:29:19.829Z,70.80
2023-01-19T10:30:43.169Z,71.10
2023-01-19T10:32:07.327Z,68.30
2023-01-19T10:33:28.453Z,68.50
2023-01-19T10:34:50.073Z,69.00
2023-01-19T10:36:17.312Z,68.90
2023-01-19T10:37:38.509Z,69.10
2023-01-19T10:38:59.021Z,69.10
2023-01-19T10:40:29.228Z,69.40
2023-01-19T10:43:36.056Z,69.10
2023-01-19T10:44:56.569Z,70.60
2023-01-19T10:46:27.136Z,71.20
2023-01-19T10:47:48.304Z,68.90
2023-01-19T10:49:23.147Z,70.20
2023-01-19T10:50:43.789Z,70.10
2023-01-19T10:52:07.296Z,68.20
2023-01-19T10:53:28.228Z,70.20
2023-01-19T10:54:49.241Z,69.80
2023-01-19T10:56:13.693Z,69.60
2023-01-19T10:57:36.237Z,69.40
2023-01-19T10:58:56.976Z,67.60
2023-01-19T11:00:34.857Z,67.80
2023-01-19T11:02:04.062Z,68.80
2023-01-19T11:03:28.405Z,67.30
2023-01-19T11:04:50.741Z,68.10
2023-01-19T11:06:26.756Z,68.00
2023-01-19T11:07:48.870Z,69.20
2023-01-19T11:09:12.689Z,69.40
2023-01-19T11:10:33.249Z,68.00
2023-01-19T11:11:53.874Z,66.50
2023-01-19T11:13:14.450Z,66.40
2023-01-19T11:14:34.795Z,66.80
2023-01-19T11:15:57.328Z,67.10
2023-01-19T11:17:20.686Z,66.20
2023-01-19T11:18:41.507Z,67.80
2023-01-19T11:20:02.930Z,67.50
2023-01-19T11:21:25.823Z,66.90
2023-01-19T11:22:48.878Z,66.80
2023-01-19T11:24:11.232Z,67.60
2023-01-19T11:25:33.297Z,66.20
2023-01-19T11:26:56.517Z,64.40
2023-01-19T11:28:18.863Z,65.80
2023-01-19T11:29:39.166Z,66.30
2023-01-19T11:31:01.386Z,65.90
2023-01-19T11:32:23.504Z,66.10
2023-01-19T11:33:50.777Z,67.10
2023-01-19T11:35:34.558Z,67.10
2023-01-19T11:37:01.621Z,66.40
2023-01-19T11:38:23.407Z,65.30
2023-01-19T11:39:47.540Z,64.40
2023-01-19T11:41:16.420Z,65.30
2023-01-19T11:42:37.347Z,65.20
2023-01-19T11:44:00.313Z,64.40
2023-01-19T11:45:20.739Z,64.20
2023-01-19T11:46:44.381Z,64.70
2023-01-19T11:48:06.382Z,65.40
2023-01-19T11:49:31.932Z,64.60
2023-01-19T11:50:53.149Z,65.80
2023-01-19T11:52:26.182Z,65.80
2023-01-19T11:53:51.586Z,64.60
2023-01-19T11:55:18.779Z,64.50
2023-01-19T11:56:39.204Z,62.80
2023-01-19T11:58:00.241Z,61.80
2023-01-19T11:59:22.384Z,62.20
2023-01-19T12:00:44.711Z,63.10
2023-01-19T12:02:15.940Z,63.50
2023-01-19T12:03:40.569Z,63.50
2023-01-19T12:05:06.651Z,63.40
2023-01-19T12:06:30.834Z,63.40
2023-01-19T12:07:52.062Z,63.70
2023-01-19T12:09:15.259Z,64.10
2023-01-19T12:10:38.947Z,63.50
2023-01-19T12:12:03.340Z,64.30
2023-01-19T12:13:26.022Z,64.20
2023-01-19T12:14:52.709Z,64.80
2023-01-19T12:16:19.214Z,63.70
2023-01-19T12:17:45.137Z,64.10
2023-01-19T12:19:16.131Z,64.00
2023-01-19T12:20:38.909Z,64.20
2023-01-19T12:21:59.731Z,64.00
2023-01-19T12:23:29.286Z,63.30
2023-01-19T12:24:55.160Z,64.00
2023-01-19T12:26:25.406Z,63.60
2023-01-19T12:27:46.961Z,63.30
2023-01-19T12:29:12.062Z,63.00
2023-01-19T12:30:32.390Z,62.50
2023-01-19T12:32:18.041Z,62.50
2023-01-19T12:33:39.359Z,61.70
2023-01-19T12:35:00.092Z,62.10
2023-01-19T12:36:36.906Z,63.10
2023-01-19T12:37:57.367Z,62.50
2023-01-19T12:39:19.438Z,63.10
2023-01-19T12:40:41.282Z,62.60
2023-01-19T12:42:08.030Z,64.40
2023-01-19T12:43:28.473Z,63.50
2023-01-19T12:44:49.086Z,61.90
2023-01-19T12:46:19.723Z,62.40
2023-01-19T12:47:40.186Z,62.60
2023-01-19T12:49:04.504Z,62.20
2023-01-19T12:50:25.559Z,62.50
2023-01-19T12:51:46.526Z,63.30
2023-01-19T12:53:18.099Z,63.30
2023-01-19T12:54:40.990Z,62.20
2023-01-19T12:56:04.140Z,61.60
2023-01-19T12:57:27.396Z,62.70
2023-01-19T12:58:48.976Z,62.70
2023-01-19T13:00:35.457Z,62.40
2023-01-19T13:02:32.954Z,61.80
2023-01-19T13:04:04.950Z,61.60
2023-01-19T13:05:48.397Z,61.20
2023-01-19T13:07:10.115Z,61.30
2023-01-19T13:08:58.384Z,61.30
2023-01-19T13:11:05.615Z,60.20
2023-01-19T13:12:27.633Z,60.60
2023-01-19T13:14:24.487Z,61.40
2023-01-19T13:15:45.227Z,61.00
2023-01-19T13:17:24.871Z,60.00
2023-01-19T13:18:47.920Z,58.40
2023-01-19T13:20:26.664Z,58.50
2023-01-19T13:21:48.668Z,57.70
2023-01-19T13:23:22.124Z,58.20
2023-01-19T13:25:04.442Z,58.90
2023-01-19T13:26:27.648Z,60.20
2023-01-19T13:27:49.987Z,60.00
2023-01-19T13:29:14.398Z,60.60
2023-01-19T13:30:35.529Z,59.40
2023-01-19T13:31:56.865Z,59.30
2023-01-19T13:33:20.586Z,59.30
2023-01-19T13:34:44.765Z,58.50
2023-01-19T13:36:16.929Z,58.80
2023-01-19T13:37:40.123Z,59.40
2023-01-19T13:39:02.494Z,60.30
2023-01-19T13:40:25.468Z,60.80
2023-01-19T13:41:47.206Z,61.70
2023-01-19T13:43:17.397Z,61.80
2023-01-19T13:44:42.150Z,61.30
2023-01-19T13:46:02.686Z,60.90
2023-01-19T13:47:25.248Z,62.00
2023-01-19T13:48:54.029Z,61.60
2023-01-19T13:50:20.145Z,60.50
2023-01-19T13:51:41.052Z,60.20
2023-01-19T13:53:01.891Z,60.80
2023-01-19T13:54:22.640Z,58.50
2023-01-19T13:55:43.245Z,58.50
2023-01-19T13:57:04.336Z,58.40
2023-01-19T13:58:26.297Z,58.40
2023-01-19T14:00:05.551Z,59.10
2023-01-19T14:01:28.992Z,59.70
2023-01-19T14:02:55.903Z,59.60
2023-01-19T14:04:25.522Z,58.00
2023-01-19T14:05:45.903Z,57.30
2023-01-19T14:07:11.777Z,57.50
2023-01-19T14:08:32.575Z,58.50
2023-01-19T14:10:03.018Z,58.00
2023-01-19T14:11:23.933Z,59.50
2023-01-19T14:12:58.459Z,59.60
2023-01-19T14:14:27.886Z,58.70
2023-01-19T14:15:50.509Z,59.10
2023-01-19T14:17:26.252Z,59.20
2023-01-19T14:18:46.634Z,59.10
2023-01-19T14:20:27.701Z,59.30
2023-01-19T14:21:58.860Z,59.40
2023-01-19T14:23:45.320Z,60.70
2023-01-19T14:25:27.872Z,59.00
2023-01-19T14:26:49.590Z,57.80
2023-01-19T14:28:29.489Z,58.10
2023-01-19T14:29:52.332Z,60.00
2023-01-19T14:31:21.211Z,59.70
2023-01-19T14:32:45.815Z,58.30
2023-01-19T14:34:34.160Z,57.70
2023-01-19T14:35:54.776Z,58.60
2023-01-19T14:37:20.843Z,58.40
2023-01-19T14:38:43.456Z,57.90
2023-01-19T14:40:16.801Z,58.00
2023-01-19T14:41:39.275Z,57.60
2023-01-19T14:43:01.196Z,58.30
2023-01-19T14:44:28.142Z,59.60
2023-01-19T14:45:50.158Z,60.20
2023-01-19T14:47:22.366Z,60.20
2023-01-19T14:48:46.507Z,60.60
2023-01-19T14:50:09.658Z,60.40
2023-01-19T14:51:31.259Z,60.00
2023-01-19T14:52:54.643Z,60.40
2023-01-19T14:54:17.016Z,58.00
2023-01-19T14:55:39.721Z,57.40
2023-01-19T14:57:00.420Z,57.40
2023-01-19T14:58:22.928Z,57.50
2023-01-19T14:59:43.196Z,58.30
2023-01-19T15:01:05.855Z,58.20
2023-01-19T15:02:27.049Z,57.90
2023-01-19T15:03:47.752Z,58.60
2023-01-19T15:05:09.073Z,58.80
2023-01-19T15:06:30.290Z,58.90
2023-01-19T15:07:51.032Z,59.70
2023-01-19T15:09:13.008Z,60.30
2023-01-19T15:10:35.445Z,60.70
2023-01-19T15:11:56.344Z,61.80
2023-01-19T15:13:20.085Z,61.30
2023-01-19T15:14:40.957Z,61.60
2023-01-19T15:16:01.910Z,62.00
2023-01-19T15:17:24.161Z,63.00
2023-01-19T15:18:44.595Z,63.20
2023-01-19T15:20:09.808Z,63.00
2023-01-19T15:21:30.510Z,63.80
2023-01-19T15:22:51.012Z,64.80
2023-01-19T15:24:12.858Z,64.20
2023-01-19T15:25:33.310Z,64.30
2023-01-19T15:26:53.832Z,63.90
2023-01-19T15:28:19.967Z,64.70
2023-01-19T15:29:40.413Z,64.40
2023-01-19T15:31:01.195Z,64.50
2023-01-19T15:32:21.862Z,65.30
2023-01-19T15:33:43.981Z,64.50
2023-01-19T15:35:11.824Z,64.60
2023-01-19T15:36:32.359Z,64.90
2023-01-19T15:37:52.809Z,64.70
2023-01-19T15:39:13.123Z,64.70
2023-01-19T15:40:33.798Z,65.50
2023-01-19T15:41:54.522Z,64.70
2023-01-19T15:43:14.985Z,64.70
2023-01-19T15:44:35.616Z,64.50
2023-01-19T15:46:00.389Z,64.30
2023-01-19T15:47:20.969Z,64.50
2023-01-19T15:48:43.134Z,65.40
2023-01-19T15:50:03.955Z,65.60
2023-01-19T15:51:25.669Z,65.30
2023-01-19T15:52:46.379Z,65.40
2023-01-19T15:54:09.744Z,65.50
2023-01-19T15:55:30.475Z,65.70
2023-01-19T15:56:50.817Z,66.20
2023-01-19T15:58:13.625Z,66.00
2023-01-19T15:59:34.617Z,66.50
2023-01-19T16:00:55.588Z,65.50
2023-01-19T16:02:16.312Z,65.50
2023-01-19T16:03:38.135Z,65.80
2023-01-19T16:05:00.191Z,65.40
2023-01-19T16:06:20.941Z,66.60
2023-01-19T16:07:41.329Z,65.90
2023-01-19T16:09:02.366Z,66.40
2023-01-19T16:10:23.019Z,66.40
2023-01-19T16:11:43.753Z,66.00
2023-01-19T16:13:04.741Z,65.90
2023-01-19T16:14:25.452Z,66.30
2023-01-19T16:15:45.811Z,67.40
2023-01-19T16:17:06.152Z,67.20
2023-01-19T16:18:26.937Z,66.80
2023-01-19T16:19:48.046Z,66.50
2023-01-19T16:21:10.098Z,67.20
2023-01-19T16:22:30.329Z,67.20
2023-01-19T16:23:51.415Z,66.80
2023-01-19T16:25:12.109Z,68.90
2023-01-19T16:26:34.657Z,69.00
2023-01-19T16:27:55.598Z,68.80
2023-01-19T16:29:16.322Z,68.50
2023-01-19T16:30:37.266Z,68.00
2023-01-19T16:31:58.189Z,68.00
2023-01-19T16:33:18.842Z,67.70
2023-01-19T16:34:39.585Z,67.50
2023-01-19T16:36:19.294Z,67.10
2023-01-19T16:37:39.857Z,66.70
2023-01-19T16:39:02.119Z,67.30
2023-01-19T16:40:22.929Z,67.20
2023-01-19T16:41:44.905Z,67.80
2023-01-19T16:43:05.409Z,67.50
2023-01-19T16:44:25.965Z,68.20
2023-01-19T16:45:58.447Z,68.00
2023-01-19T16:47:19.125Z,67.10
2023-01-19T16:48:39.728Z,67.60
2023-01-19T16:50:00.700Z,67.50
2023-01-19T16:51:22.681Z,68.50
2023-01-19T16:52:43.131Z,69.60
2023-01-19T16:54:05.394Z,70.90
2023-01-19T16:55:26.101Z,72.80
2023-01-19T16:56:46.717Z,75.10
2023-01-19T16:58:08.333Z,77.00
2023-01-19T16:59:29.361Z,78.20
2023-01-19T17:00:49.970Z,79.90
2023-01-19T17:02:10.737Z,79.90
2023-01-19T17:03:31.105Z,80.90
2023-01-19T17:04:51.420Z,81.30
2023-01-19T17:06:13.879Z,82.00
2023-01-19T17:07:36.008Z,83.10
2023-01-19T17:08:58.042Z,83.80
2023-01-19T17:10:18.943Z,84.50
2023-01-19T17:11:40.337Z,85.00
2023-01-19T17:13:01.086Z,84.90
2023-01-19T17:14:22.061Z,85.70
2023-01-19T17:15:42.637Z,85.50
2023-01-19T17:17:03.670Z,85.30
2023-01-19T17:18:24.327Z,84.20
2023-01-19T17:19:44.790Z,85.00
2023-01-19T17:21:07.293Z,85.00
2023-01-19T17:22:27.787Z,85.50
2023-01-19T17:23:51.192Z,86.00
2023-01-19T17:25:12.295Z,85.70
2023-01-19T17:26:33.002Z,86.00
2023-01-19T17:27:53.479Z,86.30
2023-01-19T17:29:14.279Z,86.00
2023-01-19T17:30:34.731Z,86.10
2023-01-19T17:31:55.627Z,85.90
2023-01-19T17:33:16.115Z,86.90
2023-01-19T17:34:37.009Z,87.20
2023-01-19T17:36:02.393Z,87.30
2023-01-19T17:37:23.030Z,86.70
2023-01-19T17:38:43.569Z,86.50
2023-01-19T17:40:07.145Z,87.20
2023-01-19T17:41:32.402Z,86.40
2023-01-19T17:42:53.190Z,86.80
2023-01-19T17:44:13.785Z,87.90
2023-01-19T17:45:35.058Z,87.60
2023-01-19T17:46:55.549Z,87.80
2023-01-19T17:48:17.163Z,88.00
2023-01-19T17:49:37.710Z,87.30
2023-01-19T17:51:01.885Z,87.70